• Join FlightAware (Why Join?)
  • Login
  • US Flag 
09:58PM EST


 

Airport Tracker/Info


-or-


 

Live Flight TrackerFlight Track Log ✈ TAM3275 ✈ 12-May-2013 ✈ SBRP / RAO - SBSP / CGH

Flight Track Log - Related Links

Times and Time Zones

All times are in EDT time to prevent confusion due to time zone crossing. See the TAM3275 flight status page for this flight to view local times or setup timezone preferences in your user account.

Time Position Orientation Groundspeed Altitude Reporting Facility
EDT Latitude Longitude Course Direction KTS MPH feet Rate Location/Type
08:09PM -21.2890 -47.8770 206° Southwest 289 333 7,800  Level FlightAware
08:09PM -21.3250 -47.8960 206° Southwest 284 327 9,500 2,280 Climbing FlightAware
08:10PM -21.3760 -47.9220 205° Southwest 320 368 10,500 1,320 Climbing FlightAware
08:11PM -21.4420 -47.9540 204° Southwest 368 423 11,400 1,680 Climbing FlightAware
08:11PM -21.5040 -47.9850 205° Southwest 377 434 12,900 2,220 Climbing FlightAware
08:12PM -21.5480 -48.0150 212° Southwest 384 442 14,000 2,040 Climbing FlightAware
08:12PM -21.5780 -48.0840 245° Southwest 392 451 15,300 2,100 Climbing FlightAware
08:13PM -21.6030 -48.1560 250° West 391 450 16,800 2,040 Climbing FlightAware
08:14PM -21.6330 -48.2420 249° West 399 459 18,200 2,040 Climbing FlightAware
08:14PM -21.6740 -48.3070 236° Southwest 398 458 19,700 2,280 Climbing FlightAware
08:15PM -21.6960 -48.3200 209° Southwest 392 451 20,300 2,400 Climbing FlightAware
08:15PM -21.7240 -48.3280 195° South 390 449 20,900 2,280 Climbing FlightAware
08:16PM -21.7950 -48.3120 168° South 394 453 22,400 1,560 Climbing FlightAware
08:16PM -21.8550 -48.2690 146° Southeast 396 456 23,000 360 Climbing FlightAware
08:17PM -21.9320 -48.2140 146° Southeast 395 455 23,000  Level FlightAware
08:18PM -21.9950 -48.1690 146° Southeast 395 455 23,000  Level FlightAware
08:18PM -22.0550 -48.1260 146° Southeast 393 452 23,000  Level FlightAware
08:19PM -22.1200 -48.0800 147° Southeast 395 455 23,000  Level FlightAware
08:20PM -22.1770 -48.0390 146° Southeast 395 455 23,000  Level FlightAware
08:21PM -22.2520 -47.9850 146° Southeast 395 455 23,000  Level FlightAware
08:21PM -22.3150 -47.9400 147° Southeast 394 453 23,000  Level FlightAware
08:22PM -22.3740 -47.8970 146° Southeast 395 455 23,000  Level FlightAware
08:23PM -22.4420 -47.8480 146° Southeast 397 457 23,000  Level FlightAware
08:23PM -22.5040 -47.8040 147° Southeast 396 456 23,000  Level FlightAware
08:24PM -22.5730 -47.7540 146° Southeast 394 453 23,000  Level FlightAware
08:25PM -22.6340 -47.7100 146° Southeast 397 457 23,000 -540 Level FlightAware
08:25PM -22.6930 -47.6640 144° Southeast 400 460 22,300 -1,440 Descending FlightAware
08:26PM -22.7540 -47.6070 139° Southeast 388 447 21,000 -1,800 Descending FlightAware
08:27PM -22.8090 -47.5560 139° Southeast 384 442 19,800 -1,860 Descending FlightAware
08:28PM -22.8700 -47.4990 139° Southeast 382 440 18,400 -1,920 Descending FlightAware
08:28PM -22.9230 -47.4500 140° Southeast 369 425 17,100 -1,920 Descending FlightAware
08:29PM -22.9770 -47.4000 140° Southeast 363 418 15,900 -1,860 Descending FlightAware
08:30PM -23.0340 -47.3470 139° Southeast 362 417 14,500 -1,800 Descending FlightAware
08:30PM -23.0820 -47.3020 139° Southeast 349 402 13,400 -1,200 Descending FlightAware
08:31PM -23.1320 -47.2560 140° Southeast 323 372 12,900 -900 Descending FlightAware
08:32PM -23.1760 -47.2150 139° Southeast 303 349 12,200 -1,380 Descending FlightAware
08:33PM -23.2250 -47.1600 134° Southeast 305 351 10,900 -1,200 Descending FlightAware
08:33PM -23.2580 -47.1080 125° Southeast 300 345 10,200 -1,140 Descending FlightAware
08:34PM -23.2850 -47.0650 124° Southeast 298 343 9,400 -1,440 Descending FlightAware
08:34PM -23.2980 -47.0440 124° Southeast 299 344 9,000 -1,500 Descending FlightAware
08:35PM -23.3190 -47.0120 126° Southeast 299 344 8,300 -1,620 Descending FlightAware
08:35PM -23.3470 -46.9660 124° Southeast 293 337 7,400 -1,500 Descending FlightAware
08:36PM -23.3710 -46.9300 126° Southeast 287 330 6,700 -1,440 Descending FlightAware
08:36PM -23.3920 -46.8960 124° Southeast 282 325 6,000 -1,320 Descending FlightAware
08:37PM -23.4040 -46.8760 123° Southeast 279 321 5,600 -960 Descending FlightAware
08:37PM -23.4280 -46.8390 125° Southeast 259 298 5,200 -600 Descending FlightAware
08:38PM -23.4470 -46.8090 125° Southeast 242 278 5,000 -300 Descending FlightAware
08:38PM -23.4570 -46.7930 124° Southeast 232 267 5,000  Level FlightAware
08:38PM -23.4720 -46.7700 125° Southeast 227 261 5,000  Level FlightAware
08:38PM -23.4810 -46.7580 129° Southeast 212 244 5,000 -120 Level FlightAware
08:39PM -23.5060 -46.7400 147° Southeast 174 200 4,900 -420 Descending FlightAware
08:39PM -23.5210 -46.7290 146° Southeast 166 191 4,600 -900 Descending FlightAware
08:40PM -23.5400 -46.7160 148° Southeast 150 173 4,100 -900 Descending FlightAware
08:40PM -23.5540 -46.7070 149° Southeast 146 168 3,800 -660 Descending FlightAware
08:41PM -23.5710 -46.6950 147° Southeast 140 161 3,500 -600 Descending FlightAware
08:41PM -23.5850 -46.6850 147° Southeast 138 159 3,200 -720 Descending FlightAware
08:42PM -23.5950 -46.6780 147° Southeast 139 160 3,000 -780 Descending FlightAware
08:42PM -23.6180 -46.6630 149° Southeast 141 162 2,500 -840 Descending FlightAware
08:42PM -23.6200 -46.6610 138° Southeast 141 162 2,400 -1,200 Descending FlightAware
08:46PM -23.6267 -46.6554 287° West  Level Estimated